Time;durP1;ratioP1;P1;durP2;ratioP2;P2;SDS_P1;SDS_P2;PMS_P1;PMS_P2;Temp;Humidity;BMP_temperature;BMP_pressure;BME280_temperature;BME280_humidity;BME280_pressure;Samples;Min_cycle;Max_cycle;Signal;HPM_P1;HPM_P2
2022/04/22 00:02:05;;;;;;;2.20;2.10;;;20.20;47.30;;;;;;5015128;28;20178;-72
2022/04/22 00:04:31;;;;;;;2.20;2.00;;;20.20;47.30;;;;;;4998310;28;20212;-71
2022/04/22 00:06:57;;;;;;;1.77;1.67;;;20.30;47.40;;;;;;4998296;28;20188;-72
2022/04/22 00:09:23;;;;;;;2.28;2.08;;;20.20;47.30;;;;;;4998391;28;20214;-72
2022/04/22 00:11:48;;;;;;;2.05;1.70;;;20.30;47.40;;;;;;5031331;28;20211;-72
2022/04/22 00:14:14;;;;;;;2.13;2.03;;;20.20;47.40;;;;;;5014903;28;20212;-71
2022/04/22 00:16:40;;;;;;;2.10;2.00;;;20.20;47.40;;;;;;5030786;28;20250;-72
2022/04/22 00:19:06;;;;;;;1.92;1.80;;;20.20;47.40;;;;;;5015768;28;20180;-71
2022/04/22 00:21:32;;;;;;;1.80;1.70;;;20.20;47.40;;;;;;5014797;28;20242;-72
2022/04/22 00:23:58;;;;;;;1.88;1.77;;;20.20;47.40;;;;;;5031027;28;20216;-71
2022/04/22 00:26:24;;;;;;;2.22;2.03;;;20.20;47.50;;;;;;5014284;28;20180;-71
2022/04/22 00:28:49;;;;;;;2.13;1.88;;;20.20;47.40;;;;;;5015684;28;20173;-71
2022/04/22 00:31:15;;;;;;;2.28;2.08;;;20.20;47.40;;;;;;5014318;28;20188;-71
2022/04/22 00:33:41;;;;;;;2.30;2.10;;;20.30;47.50;;;;;;5014133;28;20302;-71
2022/04/22 00:36:08;;;;;;;2.58;2.38;;;20.20;47.40;;;;;;5014190;28;20762;-72
2022/04/22 00:38:34;;;;;;;2.28;2.17;;;20.30;47.50;;;;;;4998194;28;20203;-71
2022/04/22 00:41:00;;;;;;;2.72;2.53;;;20.20;47.40;;;;;;5030606;28;20200;-72
2022/04/22 00:43:27;;;;;;;2.97;2.70;;;20.20;47.30;;;;;;5029702;28;20200;-71
2022/04/22 00:45:54;;;;;;;2.50;2.30;;;20.20;47.40;;;;;;4997536;28;20231;-71
2022/04/22 00:48:22;;;;;;;2.97;2.78;;;20.20;47.40;;;;;;5013943;28;20195;-71
2022/04/22 00:50:48;;;;;;;2.53;2.38;;;20.20;47.40;;;;;;5014350;28;20192;-72
2022/04/22 00:53:15;;;;;;;2.88;2.50;;;20.20;47.30;;;;;;5013917;28;20208;-72
2022/04/22 00:55:45;;;;;;;2.20;2.10;;;20.20;47.40;;;;;;5014828;28;20275;-72
2022/04/22 00:58:12;;;;;;;2.50;2.30;;;20.20;47.40;;;;;;5013796;28;20204;-72
2022/04/22 01:00:39;;;;;;;2.10;2.00;;;20.20;47.40;;;;;;5013893;28;20172;-71
2022/04/22 01:03:08;;;;;;;2.20;2.00;;;20.20;47.40;;;;;;5030426;28;20192;-72
2022/04/22 01:11:05;;;;;;;2.60;2.40;;;20.20;47.50;;;;;;5013622;28;20276;-72
2022/04/22 01:13:31;;;;;;;2.45;2.25;;;20.20;47.40;;;;;;5013786;28;20208;-72
2022/04/22 01:15:57;;;;;;;3.10;2.80;;;20.20;47.40;;;;;;5013528;28;20212;-72
2022/04/22 01:18:23;;;;;;;2.70;2.50;;;20.20;47.40;;;;;;5029872;28;20320;-72
2022/04/22 01:20:49;;;;;;;2.63;2.42;;;20.20;47.40;;;;;;5029945;28;20230;-72
2022/04/22 01:23:15;;;;;;;2.90;2.70;;;20.20;47.50;;;;;;4997077;28;20223;-72
2022/04/22 01:25:41;;;;;;;2.58;2.38;;;20.20;47.40;;;;;;5013389;28;20624;-72
2022/04/22 01:28:08;;;;;;;2.15;2.00;;;20.20;47.40;;;;;;5013284;28;20636;-72
2022/04/22 01:30:34;;;;;;;2.70;2.50;;;20.20;47.40;;;;;;5013204;28;20200;-72
2022/04/22 01:33:01;;;;;;;2.78;2.53;;;20.20;47.40;;;;;;5013154;28;20191;-72
2022/04/22 01:35:26;;;;;;;2.60;2.40;;;20.20;47.40;;;;;;5012877;28;20208;-71
2022/04/22 01:37:52;;;;;;;2.03;1.83;;;20.20;47.40;;;;;;5011107;28;20555;-72
2022/04/22 01:40:19;;;;;;;2.20;2.00;;;20.10;47.30;;;;;;5033140;28;20194;-72
2022/04/22 01:42:45;;;;;;;2.28;2.08;;;20.20;47.40;;;;;;5032578;28;20187;-72
2022/04/22 01:45:14;;;;;;;2.00;1.90;;;20.20;47.50;;;;;;5049082;28;20211;-72
2022/04/22 01:47:40;;;;;;;2.10;2.00;;;20.20;47.50;;;;;;5032790;28;20254;-72
2022/04/22 01:50:07;;;;;;;2.00;1.90;;;20.10;47.40;;;;;;5032925;28;20180;-72
2022/04/22 01:52:39;;;;;;;2.10;2.00;;;20.20;47.50;;;;;;5032634;28;20261;-72
2022/04/22 01:55:05;;;;;;;2.00;1.90;;;20.20;47.50;;;;;;5014931;28;20245;-72
2022/04/22 01:57:31;;;;;;;2.13;2.03;;;20.20;47.50;;;;;;5016216;28;20202;-72
2022/04/22 01:59:59;;;;;;;3.17;2.20;;;20.20;47.50;;;;;;5032464;28;20183;-72
2022/04/22 02:02:25;;;;;;;2.30;2.20;;;20.10;47.50;;;;;;5032365;28;20187;-72
2022/04/22 02:04:51;;;;;;;2.30;2.20;;;20.20;47.60;;;;;;5015640;28;20206;-70
2022/04/22 02:07:16;;;;;;;3.00;2.80;;;20.20;47.50;;;;;;5032130;28;20575;-72
2022/04/22 02:09:42;;;;;;;2.42;2.22;;;20.10;47.40;;;;;;5032186;28;20685;-72
2022/04/22 02:12:08;;;;;;;2.45;2.10;;;20.20;47.40;;;;;;5032417;28;20191;-72
2022/04/22 02:14:34;;;;;;;3.10;2.85;;;20.20;47.40;;;;;;5015575;28;20302;-73
2022/04/22 02:17:00;;;;;;;2.70;2.50;;;20.10;47.40;;;;;;5031429;28;20211;-72
2022/04/22 02:19:26;;;;;;;2.95;2.75;;;20.10;47.40;;;;;;5032004;28;20274;-71
2022/04/22 02:21:52;;;;;;;2.25;2.15;;;20.10;47.30;;;;;;5022716;28;20278;-72
2022/04/22 02:24:18;;;;;;;2.60;2.40;;;20.10;47.40;;;;;;5012270;28;20213;-72
2022/04/22 02:29:29;;;;;;;2.03;1.92;;;20.10;47.40;;;;;;5013474;28;20536;-71
2022/04/22 02:31:55;;;;;;;2.08;1.88;;;20.10;47.40;;;;;;5012118;28;20331;-72
2022/04/22 02:34:22;;;;;;;2.70;2.50;;;20.10;47.40;;;;;;5011980;28;20294;-71
2022/04/22 02:36:50;;;;;;;2.30;2.20;;;20.10;47.50;;;;;;5011940;28;20204;-72
2022/04/22 02:39:17;;;;;;;2.35;2.15;;;20.10;47.40;;;;;;5012066;28;20200;-71
2022/04/22 02:47:13;;;;;;;2.65;2.45;;;20.10;47.50;;;;;;5012007;28;20199;-72
2022/04/22 02:49:49;;;;;;;2.80;2.60;;;20.10;47.40;;;;;;5012165;28;20180;-72
2022/04/22 02:52:15;;;;;;;3.40;3.15;;;20.10;47.40;;;;;;5011925;28;20182;-71
2022/04/22 02:54:42;;;;;;;3.00;2.80;;;20.10;47.40;;;;;;5012806;28;20222;-72
2022/04/22 02:57:09;;;;;;;2.90;2.70;;;20.10;47.40;;;;;;5011819;28;20261;-71
2022/04/22 02:59:37;;;;;;;2.35;2.10;;;20.10;47.40;;;;;;5011765;28;20276;-71
2022/04/22 03:02:05;;;;;;;2.45;2.25;;;20.10;47.40;;;;;;5012871;28;20557;-72
2022/04/22 03:04:31;;;;;;;2.63;2.42;;;20.10;47.50;;;;;;5011917;28;20215;-72
2022/04/22 03:06:57;;;;;;;2.30;2.10;;;20.10;47.50;;;;;;5011372;28;20191;-72
2022/04/22 03:09:23;;;;;;;2.42;2.22;;;20.00;47.40;;;;;;5012844;28;20198;-72
2022/04/22 03:11:50;;;;;;;2.33;2.13;;;20.10;47.70;;;;;;4995447;28;20195;-71
2022/04/22 03:14:17;;;;;;;2.30;2.08;;;20.10;47.50;;;;;;5012632;28;20200;-72
2022/04/22 03:16:44;;;;;;;2.75;2.53;;;20.10;47.50;;;;;;5011419;28;20612;-72
2022/04/22 03:19:10;;;;;;;2.53;2.33;;;20.10;47.50;;;;;;5011438;28;20195;-72
2022/04/22 03:21:36;;;;;;;2.80;2.60;;;20.10;47.50;;;;;;5011340;28;20195;-72
2022/04/22 03:24:02;;;;;;;2.28;2.17;;;20.10;47.50;;;;;;5011535;28;20706;-72
2022/04/22 03:26:28;;;;;;;2.63;2.42;;;20.10;47.50;;;;;;5011165;28;20192;-72
2022/04/22 03:28:54;;;;;;;2.85;2.65;;;20.10;47.50;;;;;;5011316;28;20179;-72
2022/04/22 03:31:20;;;;;;;2.72;2.53;;;20.10;47.60;;;;;;4995266;28;20196;-71
2022/04/22 03:33:46;;;;;;;3.25;3.05;;;20.10;47.50;;;;;;5011406;28;20222;-71
2022/04/22 03:36:14;;;;;;;3.28;3.08;;;20.10;47.50;;;;;;5011122;28;20208;-72
2022/04/22 03:38:40;;;;;;;2.97;2.78;;;20.10;47.50;;;;;;5011276;28;20184;-72
2022/04/22 03:41:06;;;;;;;3.20;3.00;;;20.10;47.40;;;;;;4994917;28;20274;-72
2022/04/22 03:43:32;;;;;;;2.92;2.63;;;20.10;47.50;;;;;;5027736;28;20239;-71
2022/04/22 03:45:59;;;;;;;3.67;3.38;;;20.10;47.50;;;;;;5011133;28;20211;-72
2022/04/22 03:48:24;;;;;;;3.38;3.10;;;20.10;47.50;;;;;;5011185;28;20192;-71
2022/04/22 03:50:50;;;;;;;3.33;3.03;;;20.10;47.40;;;;;;5011199;28;20188;-71
2022/04/22 03:53:16;;;;;;;3.08;2.88;;;20.10;47.40;;;;;;5011158;28;20212;-72
2022/04/22 03:55:44;;;;;;;2.97;2.78;;;20.10;47.50;;;;;;5010836;28;20222;-72
2022/04/22 03:58:11;;;;;;;2.50;2.05;;;20.10;47.50;;;;;;5010755;28;20188;-72
2022/04/22 04:00:44;;;;;;;2.50;2.30;;;20.00;47.40;;;;;;5011127;28;20187;-71
2022/04/22 04:03:15;;;;;;;2.83;2.63;;;20.00;47.50;;;;;;5011112;28;20215;-72
2022/04/22 04:05:48;;;;;;;2.67;2.47;;;20.00;47.50;;;;;;5012143;28;20180;-72
2022/04/22 04:08:14;;;;;;;2.83;2.63;;;20.10;47.50;;;;;;5011191;28;20242;-71
2022/04/22 04:16:10;;;;;;;3.40;3.13;;;20.00;47.50;;;;;;5010646;28;20239;-72
2022/04/22 04:18:38;;;;;;;3.35;3.13;;;20.00;47.40;;;;;;5011854;28;20215;-70
2022/04/22 04:23:50;;;;;;;2.83;2.63;;;20.00;47.40;;;;;;5046343;22;21349;-68
2022/04/22 04:26:18;;;;;;;2.60;2.40;;;20.00;47.50;;;;;;5021766;28;20183;-70
2022/04/22 04:28:47;;;;;;;3.10;2.80;;;20.00;47.40;;;;;;5022114;28;20205;-70
2022/04/22 04:31:14;;;;;;;2.70;2.50;;;20.00;47.50;;;;;;5038583;28;20195;-70
2022/04/22 04:33:41;;;;;;;2.72;2.53;;;20.00;47.50;;;;;;5055907;28;20273;-70
2022/04/22 04:36:10;;;;;;;2.85;2.53;;;20.00;47.50;;;;;;5037678;28;20203;-70
2022/04/22 04:38:42;;;;;;;2.90;2.70;;;20.00;47.50;;;;;;5038141;28;20196;-69
2022/04/22 04:41:09;;;;;;;3.15;2.95;;;20.00;47.50;;;;;;5056231;28;20269;-70
2022/04/22 04:43:38;;;;;;;3.35;3.05;;;20.00;47.50;;;;;;5056259;28;20234;-70
2022/04/22 04:46:04;;;;;;;3.65;3.35;;;20.00;47.50;;;;;;5055468;28;20198;-69
2022/04/22 04:48:30;;;;;;;3.70;3.40;;;20.00;47.50;;;;;;5054792;28;20179;-70
2022/04/22 04:50:56;;;;;;;3.88;3.53;;;20.00;47.50;;;;;;5055382;28;20548;-70
2022/04/22 04:53:25;;;;;;;4.03;3.63;;;20.00;47.50;;;;;;5055133;28;20190;-70
2022/04/22 04:55:53;;;;;;;3.90;3.40;;;20.10;47.50;;;;;;5056353;28;20214;-70
2022/04/22 04:58:20;;;;;;;3.92;3.63;;;20.00;47.50;;;;;;5056147;28;20233;-70
2022/04/22 05:00:46;;;;;;;3.97;3.67;;;20.00;47.40;;;;;;5055362;28;20264;-69
2022/04/22 05:03:12;;;;;;;3.63;3.33;;;20.00;47.40;;;;;;5054845;28;20178;-70
2022/04/22 05:05:39;;;;;;;3.47;3.22;;;20.00;47.50;;;;;;5054684;28;20213;-70
2022/04/22 05:08:07;;;;;;;3.33;3.03;;;20.00;47.50;;;;;;5055321;28;20201;-70
2022/04/22 05:10:35;;;;;;;3.13;2.92;;;20.00;47.50;;;;;;5055343;28;20240;-70
2022/04/22 05:13:03;;;;;;;2.70;2.50;;;20.00;47.50;;;;;;5056301;28;20182;-70
2022/04/22 05:15:31;;;;;;;2.95;2.75;;;20.00;47.50;;;;;;5038336;28;20218;-70
2022/04/22 05:17:59;;;;;;;2.67;2.47;;;20.00;47.50;;;;;;5055038;28;20183;-70
2022/04/22 05:20:26;;;;;;;3.08;2.88;;;20.00;47.60;;;;;;5038020;28;20182;-70
2022/04/22 05:22:54;;;;;;;2.85;2.65;;;20.00;47.50;;;;;;5021451;28;20189;-69
2022/04/22 05:25:21;;;;;;;3.10;2.80;;;20.00;47.50;;;;;;5037198;28;20245;-70
2022/04/22 05:27:48;;;;;;;3.15;2.88;;;20.00;47.60;;;;;;5054504;28;20261;-70
2022/04/22 05:33:03;;;;;;;4.30;3.90;;;20.00;47.60;;;;;;5037930;28;20173;-69
2022/04/22 05:35:29;;;;;;;4.10;3.80;;;20.00;47.50;;;;;;5055745;28;20207;-70
2022/04/22 05:37:57;;;;;;;3.88;3.58;;;20.00;47.50;;;;;;5054499;28;20185;-70
2022/04/22 05:40:27;;;;;;;4.40;4.00;;;20.00;47.50;;;;;;5054274;28;20179;-70
2022/04/22 05:42:54;;;;;;;3.90;3.60;;;20.00;47.50;;;;;;5038189;28;20182;-70
2022/04/22 05:45:22;;;;;;;3.53;3.25;;;20.00;47.50;;;;;;5055330;28;20206;-70
2022/04/22 05:47:51;;;;;;;3.33;3.13;;;20.00;47.50;;;;;;5055848;28;20718;-70
2022/04/22 05:50:18;;;;;;;2.80;2.60;;;20.00;47.50;;;;;;5053804;28;20179;-70
2022/04/22 05:52:44;;;;;;;2.75;2.55;;;20.00;47.60;;;;;;5036934;28;20189;-70
2022/04/22 05:55:16;;;;;;;3.55;3.17;;;20.00;47.60;;;;;;5053377;28;20202;-70
2022/04/22 05:57:44;;;;;;;3.08;2.88;;;20.00;47.50;;;;;;5053707;28;20278;-70
2022/04/22 06:00:14;;;;;;;3.00;2.80;;;20.00;47.60;;;;;;5055959;28;20171;-70
2022/04/22 06:02:41;;;;;;;2.95;2.75;;;20.00;47.60;;;;;;5059535;28;20243;-71
2022/04/22 06:05:14;;;;;;;3.03;2.83;;;20.00;47.60;;;;;;5061225;28;20218;-70
2022/04/22 06:07:41;;;;;;;2.78;2.58;;;20.00;47.60;;;;;;5053480;28;20182;-70
2022/04/22 06:12:55;;;;;;;4.72;4.30;;;20.10;47.50;;;;;;5054482;28;20205;-70
2022/04/22 06:15:21;;;;;;;4.50;4.10;;;20.10;47.50;;;;;;5054376;28;20221;-70
2022/04/22 06:17:47;;;;;;;4.70;4.30;;;20.10;47.50;;;;;;5054381;28;20278;-70
2022/04/22 06:20:14;;;;;;;4.38;3.97;;;20.10;47.50;;;;;;5054302;28;20290;-70
2022/04/22 06:22:41;;;;;;;4.75;4.40;;;20.10;47.40;;;;;;5053746;28;20182;-72
2022/04/22 06:25:11;;;;;;;3.95;3.65;;;20.10;47.40;;;;;;5030525;28;20202;-69
2022/04/22 06:27:44;;;;;;;2.90;2.70;;;20.10;47.40;;;;;;5073608;28;20184;-70
2022/04/22 06:30:19;;;;;;;3.47;3.17;;;20.10;47.40;;;;;;5072455;28;20206;-70
2022/04/22 06:32:49;;;;;;;3.53;3.10;;;20.10;47.50;;;;;;5068839;28;20208;-70
2022/04/22 06:35:19;;;;;;;2.95;2.75;;;20.10;47.40;;;;;;5035479;28;20214;-69
2022/04/22 06:37:51;;;;;;;2.90;2.70;;;20.10;47.40;;;;;;5053315;28;20183;-70
2022/04/22 06:45:50;;;;;;;4.15;3.75;;;20.10;47.40;;;;;;5043456;28;20186;-69
2022/04/22 06:48:31;;;;;;;3.92;3.53;;;20.20;47.40;;;;;;5049545;28;20190;-70
2022/04/22 06:51:02;;;;;;;3.90;3.60;;;20.20;47.40;;;;;;5032692;28;20192;-70
2022/04/22 06:53:28;;;;;;;3.65;3.38;;;20.20;47.30;;;;;;5032604;28;20187;-70
2022/04/22 06:55:59;;;;;;;3.67;3.38;;;20.20;47.90;;;;;;5048800;28;20264;-70
2022/04/22 06:58:26;;;;;;;3.17;2.88;;;20.30;47.40;;;;;;5049350;28;20208;-69
2022/04/22 07:00:53;;;;;;;4.65;3.05;;;20.30;47.30;;;;;;5049916;28;20594;-70
2022/04/22 07:03:19;;;;;;;3.30;2.80;;;20.30;47.30;;;;;;5033162;28;20256;-69
2022/04/22 07:05:48;;;;;;;3.30;3.00;;;20.30;47.30;;;;;;5016211;28;20619;-70
2022/04/22 07:08:17;;;;;;;2.63;2.42;;;20.30;47.30;;;;;;5051069;28;20556;-70
2022/04/22 07:10:52;;;;;;;3.20;2.88;;;20.30;47.30;;;;;;5032853;28;20194;-70
2022/04/22 07:13:18;;;;;;;2.90;2.70;;;20.30;47.20;;;;;;5030656;28;20166;-70
2022/04/22 07:15:50;;;;;;;2.88;2.53;;;20.30;47.30;;;;;;4995947;28;20582;-70
2022/04/22 07:18:17;;;;;;;3.28;3.08;;;20.40;47.30;;;;;;4996137;28;20187;-70
2022/04/22 07:20:43;;;;;;;3.28;3.08;;;20.40;47.30;;;;;;5033571;28;20187;-70
2022/04/22 07:23:10;;;;;;;2.90;2.70;;;20.40;47.30;;;;;;5048920;28;20343;-69
2022/04/22 07:25:37;;;;;;;3.13;2.83;;;20.40;47.30;;;;;;5020311;28;20226;-70
2022/04/22 07:28:04;;;;;;;3.03;2.83;;;20.40;47.30;;;;;;5018309;28;20191;-69
2022/04/22 07:30:30;;;;;;;3.25;2.95;;;20.40;47.40;;;;;;5027976;28;20183;-70
2022/04/22 07:32:57;;;;;;;2.80;2.60;;;20.40;47.30;;;;;;5051548;28;20634;-70
2022/04/22 07:35:23;;;;;;;3.40;2.78;;;20.40;47.20;;;;;;5034364;28;20213;-70
2022/04/22 07:37:52;;;;;;;3.05;2.85;;;20.40;47.20;;;;;;5050919;28;20174;-70
2022/04/22 07:40:21;;;;;;;3.08;2.88;;;20.50;47.20;;;;;;5034606;28;20603;-71
2022/04/22 07:48:23;;;;;;;3.88;2.40;;;20.50;47.10;;;;;;5050106;28;20273;-71
2022/04/22 07:50:50;;;;;;;2.95;2.75;;;20.50;47.20;;;;;;5051669;28;20197;-70
2022/04/22 07:53:18;;;;;;;2.70;2.50;;;20.50;47.80;;;;;;5054019;28;20195;-71
2022/04/22 07:55:44;;;;;;;2.80;2.60;;;20.60;47.30;;;;;;5039165;28;20276;-70
2022/04/22 07:58:10;;;;;;;2.60;2.40;;;20.60;47.20;;;;;;5052404;28;20179;-70
2022/04/22 08:00:46;;;;;;;2.75;2.55;;;20.60;47.30;;;;;;5019630;28;20187;-71
2022/04/22 08:03:15;;;;;;;2.53;2.33;;;20.60;47.20;;;;;;5019412;28;20168;-70
2022/04/22 08:05:41;;;;;;;2.70;2.50;;;20.60;47.30;;;;;;5002389;28;20213;-70
2022/04/22 08:08:07;;;;;;;3.33;2.80;;;20.60;47.20;;;;;;5018836;28;20183;-70
2022/04/22 08:10:34;;;;;;;2.70;2.50;;;20.60;47.20;;;;;;5002728;28;20198;-70
2022/04/22 08:13:01;;;;;;;2.88;2.67;;;20.60;47.20;;;;;;5036136;28;20187;-70
2022/04/22 08:15:27;;;;;;;3.40;2.92;;;20.60;47.30;;;;;;5019507;28;20211;-71
2022/04/22 08:17:53;;;;;;;2.90;2.70;;;20.60;47.30;;;;;;5003077;28;20625;-70
2022/04/22 08:20:18;;;;;;;2.65;2.45;;;20.70;47.40;;;;;;5036624;28;20211;-71
2022/04/22 08:22:44;;;;;;;3.25;2.95;;;20.60;47.90;;;;;;5038687;28;20186;-70
2022/04/22 08:25:13;;;;;;;3.00;2.80;;;20.60;47.30;;;;;;5056771;28;20214;-70
2022/04/22 08:27:40;;;;;;;2.78;2.58;;;20.70;47.40;;;;;;5022032;28;20665;-71
2022/04/22 08:30:09;;;;;;;2.97;2.58;;;20.70;47.40;;;;;;5056740;28;20654;-70
2022/04/22 08:32:35;;;;;;;2.88;2.60;;;20.60;47.40;;;;;;5035840;28;20237;-70
2022/04/22 08:35:01;;;;;;;3.08;2.88;;;20.70;47.50;;;;;;5034844;28;20310;-70
2022/04/22 08:37:26;;;;;;;3.47;2.65;;;20.70;47.60;;;;;;5018016;28;20317;-70
2022/04/22 08:39:54;;;;;;;2.58;2.38;;;20.70;47.60;;;;;;5034741;28;20214;-70
2022/04/22 08:42:24;;;;;;;2.97;2.67;;;20.70;47.50;;;;;;5035036;28;20172;-70
2022/04/22 08:44:52;;;;;;;3.15;2.80;;;20.70;47.60;;;;;;5035462;28;20203;-70
2022/04/22 08:50:19;;;;;;;3.35;3.05;;;20.70;47.70;;;;;;5054853;28;20179;-70
2022/04/22 08:53:08;;;;;;;3.17;2.38;;;20.70;47.70;;;;;;5038434;28;20190;-71
2022/04/22 08:55:34;;;;;;;3.88;2.78;;;20.70;47.70;;;;;;5021604;28;20198;-70
2022/04/22 08:58:05;;;;;;;2.95;2.75;;;20.70;47.70;;;;;;5054220;28;20179;-70
2022/04/22 09:00:35;;;;;;;2.90;2.70;;;20.70;47.70;;;;;;5021806;28;20175;-70
2022/04/22 09:03:01;;;;;;;3.08;2.83;;;20.70;47.70;;;;;;5055356;28;20269;-70
2022/04/22 09:05:27;;;;;;;2.92;2.65;;;20.70;47.70;;;;;;5053632;28;20268;-70
2022/04/22 09:07:53;;;;;;;3.05;2.63;;;20.70;47.80;;;;;;5038845;28;20566;-70
2022/04/22 09:10:20;;;;;;;3.03;2.83;;;20.70;47.80;;;;;;5057930;28;20215;-70
2022/04/22 09:12:56;;;;;;;3.15;2.78;;;20.70;47.80;;;;;;5024985;28;20193;-70
2022/04/22 09:15:26;;;;;;;3.38;2.63;;;20.70;47.80;;;;;;5058880;28;20202;-70
2022/04/22 09:17:57;;;;;;;2.72;2.53;;;20.70;48.00;;;;;;5056954;28;20236;-71
2022/04/22 09:20:32;;;;;;;2.92;2.72;;;20.70;48.00;;;;;;5021100;28;20178;-70
2022/04/22 09:22:58;;;;;;;3.25;2.90;;;20.70;48.00;;;;;;5053809;28;20185;-70
2022/04/22 09:25:25;;;;;;;2.80;2.60;;;20.70;48.20;;;;;;5053440;28;20296;-70
2022/04/22 09:27:51;;;;;;;3.25;2.60;;;20.70;48.30;;;;;;5054816;28;20167;-70
2022/04/22 09:30:17;;;;;;;2.88;2.67;;;20.70;48.10;;;;;;5053501;28;20190;-69
2022/04/22 09:32:46;;;;;;;2.95;2.70;;;20.70;48.20;;;;;;5036669;28;20190;-70
2022/04/22 09:35:20;;;;;;;2.55;2.40;;;20.70;48.50;;;;;;5053481;28;20252;-71
2022/04/22 09:43:36;;;;;;;3.30;3.00;;;20.70;48.10;;;;;;5053544;28;20194;-70
2022/04/22 09:46:03;;;;;;;2.80;2.60;;;20.70;48.10;;;;;;5053038;28;20191;-70
2022/04/22 09:48:44;;;;;;;2.85;2.55;;;20.70;48.10;;;;;;5053230;28;20186;-70
2022/04/22 09:51:30;;;;;;;2.97;2.78;;;20.70;48.20;;;;;;5053122;28;20240;-70
2022/04/22 09:54:10;;;;;;;4.10;2.95;;;20.70;48.20;;;;;;5053374;28;20206;-70
2022/04/22 09:56:38;;;;;;;3.45;3.15;;;20.70;48.10;;;;;;5052776;28;20212;-69
2022/04/22 09:59:27;;;;;;;2.95;2.63;;;20.80;48.10;;;;;;5036337;28;20205;-70
2022/04/22 10:01:54;;;;;;;2.95;2.70;;;20.70;48.10;;;;;;5019865;28;20273;-70
2022/04/22 10:04:23;;;;;;;3.10;2.90;;;20.70;48.10;;;;;;5036584;28;20238;-70
2022/04/22 10:06:50;;;;;;;3.00;2.70;;;20.80;48.30;;;;;;5052805;28;20190;-70
2022/04/22 10:09:18;;;;;;;3.25;2.80;;;20.70;48.20;;;;;;5053946;28;20193;-70
2022/04/22 10:11:48;;;;;;;3.50;2.60;;;20.70;48.40;;;;;;5036160;28;20187;-71
2022/04/22 10:14:21;;;;;;;2.53;2.33;;;20.70;48.40;;;;;;5036091;28;20213;-71
2022/04/22 10:16:50;;;;;;;2.92;2.72;;;20.70;48.30;;;;;;5035497;28;20206;-70
2022/04/22 10:19:16;;;;;;;3.33;3.03;;;20.80;48.50;;;;;;5052588;28;20191;-70
2022/04/22 10:21:44;;;;;;;3.33;3.03;;;20.80;48.40;;;;;;5036845;28;20262;-70
2022/04/22 10:24:13;;;;;;;2.88;2.67;;;20.70;48.20;;;;;;5052056;28;20202;-70
2022/04/22 10:26:39;;;;;;;3.42;3.13;;;20.70;48.40;;;;;;5035906;28;20270;-70
2022/04/22 10:29:08;;;;;;;3.53;2.60;;;20.70;48.10;;;;;;5035633;28;20217;-70
2022/04/22 10:34:10;;;;;;;3.30;3.00;;;20.70;48.20;;;;;;5051539;28;20221;-69
2022/04/22 10:36:38;;;;;;;2.85;2.65;;;20.70;48.30;;;;;;5034822;28;20271;-69
2022/04/22 10:39:04;;;;;;;2.92;2.70;;;20.70;48.40;;;;;;5018520;28;20566;-69
2022/04/22 10:41:44;;;;;;;2.90;2.65;;;20.70;48.40;;;;;;5018380;28;20292;-69
2022/04/22 10:47:13;;;;;;;2.83;2.63;;;20.70;48.30;;;;;;5051367;28;20194;-69
2022/04/22 10:49:42;;;;;;;3.83;2.50;;;20.70;48.30;;;;;;5051659;28;20213;-69
2022/04/22 10:52:15;;;;;;;3.10;2.83;;;20.80;48.40;;;;;;5052812;28;20175;-69
2022/04/22 10:54:53;;;;;;;4.43;2.80;;;20.70;48.50;;;;;;5051347;28;20250;-69
2022/04/22 10:57:32;;;;;;;2.90;2.70;;;20.80;48.50;;;;;;5062158;28;20218;-72
2022/04/22 11:00:08;;;;;;;2.58;2.42;;;20.80;48.30;;;;;;5055504;28;20182;-69
2022/04/22 11:02:43;;;;;;;3.20;2.90;;;20.80;48.30;;;;;;5036117;28;20186;-69
2022/04/22 11:05:21;;;;;;;2.80;2.60;;;20.80;48.20;;;;;;5035047;28;20240;-69
2022/04/22 11:07:56;;;;;;;3.30;3.00;;;20.80;48.40;;;;;;5048357;28;20192;-70
2022/04/22 11:10:49;;;;;;;2.78;2.58;;;20.80;48.30;;;;;;5034334;28;20202;-70
2022/04/22 11:13:29;;;;;;;2.75;2.53;;;20.70;48.60;;;;;;5034374;28;20233;-69
2022/04/22 11:16:05;;;;;;;2.88;2.58;;;20.80;48.30;;;;;;5052075;28;20295;-69
2022/04/22 11:18:31;;;;;;;3.47;2.70;;;20.80;48.20;;;;;;5051231;28;20173;-70
2022/04/22 11:21:09;;;;;;;3.35;2.95;;;20.80;48.20;;;;;;5051288;28;20190;-71
2022/04/22 11:23:46;;;;;;;3.30;3.00;;;20.80;48.20;;;;;;5052366;28;20162;-72
2022/04/22 11:26:14;;;;;;;3.50;2.92;;;20.70;48.20;;;;;;5051266;28;20192;-72
2022/04/22 11:28:42;;;;;;;3.92;3.35;;;20.80;48.30;;;;;;5034187;28;20187;-71
2022/04/22 11:31:12;;;;;;;3.08;2.80;;;20.80;48.30;;;;;;5030891;28;20305;-72
2022/04/22 11:33:40;;;;;;;3.17;2.70;;;20.80;48.20;;;;;;5031056;28;20194;-71
2022/04/22 11:36:07;;;;;;;2.83;2.63;;;20.80;48.30;;;;;;5014412;28;20268;-72
2022/04/22 11:38:33;;;;;;;3.38;3.10;;;20.80;48.30;;;;;;5014656;28;20183;-72
2022/04/22 11:41:00;;;;;;;3.13;2.90;;;20.80;48.20;;;;;;5030942;28;20231;-72
2022/04/22 11:43:28;;;;;;;3.75;2.90;;;20.80;48.10;;;;;;5014412;28;20179;-71
2022/04/22 11:45:54;;;;;;;3.40;3.10;;;20.80;48.20;;;;;;5030892;28;20198;-72
2022/04/22 11:48:23;;;;;;;3.33;2.75;;;20.80;48.20;;;;;;5014515;28;20585;-72
2022/04/22 11:50:50;;;;;;;3.92;3.10;;;20.80;48.10;;;;;;5014609;28;20211;-72
2022/04/22 11:53:24;;;;;;;5.47;3.22;;;20.80;48.20;;;;;;5014495;28;20182;-72
2022/04/22 11:55:50;;;;;;;3.83;2.90;;;20.80;48.10;;;;;;5030576;28;20591;-70
2022/04/22 11:58:27;;;;;;;3.50;3.20;;;20.80;48.10;;;;;;5014258;28;20270;-72
2022/04/22 12:06:25;;;;;;;3.80;3.50;;;20.80;48.20;;;;;;5014085;28;20195;-72
2022/04/22 12:09:02;;;;;;;2.92;2.70;;;20.80;48.20;;;;;;5014239;28;20302;-72
2022/04/22 12:11:27;;;;;;;3.28;3.08;;;20.80;48.10;;;;;;5031935;28;20234;-72
2022/04/22 12:13:54;;;;;;;3.58;3.28;;;20.80;48.20;;;;;;4997766;28;20215;-72
2022/04/22 12:16:23;;;;;;;3.08;2.83;;;20.80;48.10;;;;;;5014211;28;20215;-72
2022/04/22 12:18:53;;;;;;;3.30;3.00;;;20.80;48.00;;;;;;5031652;28;20186;-72
2022/04/22 12:21:21;;;;;;;3.20;2.90;;;20.80;48.10;;;;;;4998055;28;20275;-72
2022/04/22 12:23:50;;;;;;;3.60;3.30;;;20.80;48.00;;;;;;5014253;28;20270;-72
2022/04/22 12:26:19;;;;;;;3.45;2.72;;;20.80;48.00;;;;;;4997498;28;20191;-71
2022/04/22 12:29:15;;;;;;;3.42;3.13;;;20.80;48.00;;;;;;4997948;28;20187;-71
2022/04/22 12:31:43;;;;;;;3.15;2.85;;;20.80;48.00;;;;;;4997699;28;20231;-72
2022/04/22 12:34:14;;;;;;;2.88;2.63;;;20.80;48.00;;;;;;4997585;28;20207;-71
2022/04/22 12:36:57;;;;;;;3.40;2.88;;;20.80;48.00;;;;;;5013867;28;20207;-72
2022/04/22 12:39:34;;;;;;;3.03;2.83;;;20.80;48.10;;;;;;5032064;28;20179;-72
2022/04/22 12:41:59;;;;;;;3.50;3.20;;;20.80;48.00;;;;;;5017718;28;20203;-72
2022/04/22 12:44:25;;;;;;;3.08;2.88;;;20.80;48.00;;;;;;5035117;28;20186;-72
2022/04/22 12:52:32;;;;;;;3.53;3.28;;;20.80;48.00;;;;;;5035056;28;20186;-72
2022/04/22 12:55:08;;;;;;;2.90;2.70;;;20.80;48.20;;;;;;5017388;28;20266;-72
2022/04/22 12:57:39;;;;;;;3.10;2.90;;;20.80;48.00;;;;;;5017043;28;20301;-72
2022/04/22 13:00:20;;;;;;;3.15;2.80;;;20.80;48.20;;;;;;5017185;28;20207;-72
2022/04/22 13:02:46;;;;;;;3.72;2.72;;;20.80;48.00;;;;;;5017485;28;20183;-71
2022/04/22 13:05:22;;;;;;;2.63;2.42;;;20.80;47.90;;;;;;5017037;28;20183;-71
2022/04/22 13:07:50;;;;;;;2.90;2.70;;;20.80;47.90;;;;;;5016901;28;20187;-72
2022/04/22 13:10:19;;;;;;;3.05;2.85;;;20.80;48.00;;;;;;5000733;28;20207;-71
2022/04/22 13:12:46;;;;;;;3.03;2.83;;;20.80;48.00;;;;;;5016923;28;20675;-72
2022/04/22 13:15:18;;;;;;;3.17;2.90;;;20.90;48.40;;;;;;5000522;28;20183;-72
2022/04/22 13:17:51;;;;;;;3.25;2.85;;;20.80;47.70;;;;;;5016808;28;20263;-72
2022/04/22 13:20:20;;;;;;;3.20;3.00;;;20.80;47.80;;;;;;5016783;28;20246;-72
2022/04/22 13:22:48;;;;;;;2.88;2.67;;;20.80;47.80;;;;;;5016641;28;20183;-72
2022/04/22 13:25:17;;;;;;;2.70;2.50;;;20.80;47.90;;;;;;5000367;28;20270;-72
2022/04/22 13:27:44;;;;;;;3.08;2.70;;;20.80;48.00;;;;;;4999958;28;20293;-72
2022/04/22 13:30:12;;;;;;;3.08;2.78;;;20.80;47.80;;;;;;5016777;28;20230;-73
2022/04/22 13:32:38;;;;;;;3.40;3.10;;;20.80;47.80;;;;;;5016316;28;20203;-71
2022/04/22 13:35:05;;;;;;;2.92;2.72;;;20.80;47.80;;;;;;5024373;28;20176;-72
2022/04/22 13:37:34;;;;;;;3.08;2.78;;;20.80;47.90;;;;;;5024397;28;20234;-71
2022/04/22 13:40:00;;;;;;;3.08;2.80;;;20.80;47.90;;;;;;5016082;28;20249;-72
2022/04/22 13:42:26;;;;;;;3.00;2.80;;;20.80;47.80;;;;;;5048019;28;20198;-72
2022/04/22 13:53:05;;;;;;;3.00;2.80;;;20.80;47.70;;;;;;5045212;28;20186;-71
2022/04/22 13:55:36;;;;;;;2.67;2.47;;;20.80;47.80;;;;;;5052776;28;20178;-71
2022/04/22 13:58:02;;;;;;;2.90;2.70;;;20.80;47.80;;;;;;5019534;28;20186;-71
2022/04/22 14:00:28;;;;;;;2.83;2.63;;;20.80;47.70;;;;;;5019187;28;20213;-71
2022/04/22 14:02:55;;;;;;;2.92;2.72;;;20.90;47.70;;;;;;5036229;28;20185;-71
2022/04/22 14:05:23;;;;;;;3.70;2.70;;;20.90;47.80;;;;;;5052458;28;20171;-71
2022/04/22 14:07:50;;;;;;;2.95;2.75;;;20.80;47.80;;;;;;5018991;28;20213;-71